createdAt,value
2023-05-19T00:00:48.995Z,72.54
2023-05-19T00:03:41.754Z,72.57
2023-05-19T00:06:33.765Z,72.28
2023-05-19T00:09:20.761Z,72.67
2023-05-19T00:12:10.901Z,72.66
2023-05-19T00:14:57.487Z,72.99
2023-05-19T00:17:47.018Z,73.20
2023-05-19T00:20:33.642Z,72.94
2023-05-19T00:23:20.800Z,72.90
2023-05-19T00:26:07.333Z,73.32
2023-05-19T00:28:56.417Z,73.50
2023-05-19T00:31:42.960Z,73.89
2023-05-19T00:34:29.626Z,73.62
2023-05-19T00:37:19.153Z,73.79
2023-05-19T00:40:07.192Z,73.82
2023-05-19T00:42:55.854Z,74.35
2023-05-19T00:45:42.702Z,74.76
2023-05-19T00:48:29.389Z,74.67
2023-05-19T00:51:17.303Z,74.83
2023-05-19T00:54:06.141Z,75.29
2023-05-19T00:56:55.537Z,75.43
2023-05-19T00:59:42.088Z,75.28
2023-05-19T01:02:29.910Z,75.61
2023-05-19T01:05:16.877Z,75.44
2023-05-19T01:08:06.058Z,75.59
2023-05-19T01:10:52.416Z,75.63
2023-05-19T01:13:41.952Z,75.78
2023-05-19T01:17:15.229Z,75.66
2023-05-19T01:20:31.347Z,75.81
2023-05-19T01:23:36.781Z,75.49
2023-05-19T01:27:08.258Z,76.08
2023-05-19T01:30:09.927Z,75.45
2023-05-19T01:33:02.570Z,75.85
2023-05-19T01:35:49.845Z,75.61
2023-05-19T01:38:39.578Z,75.74
2023-05-19T01:41:29.658Z,76.07
2023-05-19T01:44:19.248Z,76.15
2023-05-19T01:47:06.164Z,76.11
2023-05-19T01:49:52.851Z,76.02
2023-05-19T01:52:39.648Z,76.32
2023-05-19T01:55:33.331Z,76.01
2023-05-19T01:58:46.659Z,76.09
2023-05-19T02:01:49.137Z,76.25
2023-05-19T02:04:54.327Z,76.05
2023-05-19T02:08:03.985Z,75.79
2023-05-19T02:11:27.344Z,76.15
2023-05-19T02:14:21.248Z,75.71
2023-05-19T02:17:09.157Z,76.00
2023-05-19T02:19:58.969Z,75.79
2023-05-19T02:22:45.848Z,76.18
2023-05-19T02:25:33.538Z,76.33
2023-05-19T02:28:19.930Z,75.91
2023-05-19T02:31:10.191Z,76.29
2023-05-19T02:33:56.806Z,76.19
2023-05-19T02:36:45.028Z,76.25
2023-05-19T02:39:35.285Z,76.27
2023-05-19T02:42:22.367Z,76.42
2023-05-19T02:45:12.201Z,76.64
2023-05-19T02:48:00.966Z,76.40
2023-05-19T02:50:49.657Z,76.91
2023-05-19T02:53:38.707Z,76.41
2023-05-19T02:56:26.539Z,76.17
2023-05-19T02:59:13.798Z,76.42
2023-05-19T03:02:02.100Z,76.41
2023-05-19T03:04:49.580Z,76.39
2023-05-19T03:07:38.087Z,76.55
2023-05-19T03:10:25.023Z,75.97
2023-05-19T03:13:13.063Z,75.99
2023-05-19T03:15:59.567Z,75.64
2023-05-19T03:18:49.061Z,75.90
2023-05-19T03:21:36.102Z,75.84
2023-05-19T03:24:22.703Z,75.83
2023-05-19T03:27:09.817Z,75.78
2023-05-19T03:29:56.837Z,75.49
2023-05-19T03:32:44.425Z,75.27
2023-05-19T03:35:33.142Z,75.70
2023-05-19T03:38:23.833Z,75.79
2023-05-19T03:41:16.016Z,75.64
2023-05-19T03:44:06.749Z,75.52
2023-05-19T03:46:53.284Z,75.49
2023-05-19T03:50:10.017Z,75.57
2023-05-19T03:53:17.606Z,76.07
2023-05-19T03:56:04.605Z,75.58
2023-05-19T03:58:52.338Z,75.60
2023-05-19T04:01:40.672Z,75.71
2023-05-19T04:04:29.991Z,75.54
2023-05-19T04:07:17.235Z,75.25
2023-05-19T04:10:07.276Z,75.05
2023-05-19T04:12:54.510Z,75.10
2023-05-19T04:15:45.977Z,75.28
2023-05-19T04:18:33.134Z,75.63
2023-05-19T04:21:22.493Z,75.26
2023-05-19T04:24:11.388Z,75.62
2023-05-19T04:27:02.579Z,75.50
2023-05-19T04:29:49.737Z,75.67
2023-05-19T04:32:41.562Z,75.43
2023-05-19T04:35:28.512Z,75.30
2023-05-19T04:38:20.844Z,75.90
2023-05-19T04:41:13.309Z,75.91
2023-05-19T04:44:01.162Z,75.71
2023-05-19T04:46:48.692Z,76.09
2023-05-19T04:49:39.109Z,75.96
2023-05-19T04:52:25.930Z,76.26
2023-05-19T04:55:15.502Z,76.43
2023-05-19T04:58:02.278Z,76.44
2023-05-19T05:00:48.914Z,76.59
2023-05-19T05:03:36.478Z,76.59
2023-05-19T05:06:26.685Z,76.46
2023-05-19T05:09:14.726Z,76.44
2023-05-19T05:12:02.052Z,77.09
2023-05-19T05:14:55.102Z,76.58
2023-05-19T05:17:47.308Z,76.62
2023-05-19T05:20:35.292Z,77.00
2023-05-19T05:23:21.856Z,76.69
2023-05-19T05:26:17.803Z,77.14
2023-05-19T05:29:06.742Z,76.95
2023-05-19T05:31:54.258Z,77.01
2023-05-19T05:34:42.090Z,77.35
2023-05-19T05:37:34.771Z,77.20
2023-05-19T05:40:21.390Z,77.45
2023-05-19T05:43:08.138Z,77.48
2023-05-19T05:46:01.103Z,77.12
2023-05-19T05:48:48.240Z,77.42
2023-05-19T05:51:36.021Z,77.24
2023-05-19T05:54:23.085Z,77.32
2023-05-19T05:57:10.875Z,77.39
2023-05-19T06:00:00.522Z,77.75
2023-05-19T06:02:50.774Z,78.04
2023-05-19T06:05:39.429Z,77.82
2023-05-19T06:08:28.670Z,77.83
2023-05-19T06:18:03.059Z,78.27
2023-05-19T06:20:55.209Z,78.01
2023-05-19T06:23:41.704Z,78.23
2023-05-19T06:26:30.550Z,77.76
2023-05-19T06:29:17.373Z,78.31
2023-05-19T06:32:06.551Z,78.09
2023-05-19T06:34:56.308Z,78.41
2023-05-19T06:37:44.953Z,78.38
2023-05-19T06:40:37.085Z,78.17
2023-05-19T06:43:25.883Z,78.65
2023-05-19T06:46:14.951Z,78.35
2023-05-19T06:49:08.838Z,78.73
2023-05-19T06:52:06.102Z,79.34
2023-05-19T06:54:55.621Z,79.42
2023-05-19T06:57:46.299Z,79.71
2023-05-19T07:00:35.233Z,79.66
2023-05-19T07:03:22.006Z,79.93
2023-05-19T07:06:10.605Z,79.93
2023-05-19T07:08:57.146Z,79.88
2023-05-19T07:11:44.597Z,80.36
2023-05-19T07:14:33.742Z,79.99
2023-05-19T07:17:20.776Z,80.10
2023-05-19T07:20:10.497Z,79.94
2023-05-19T07:22:57.411Z,80.24
2023-05-19T07:25:48.477Z,80.00
2023-05-19T07:28:41.702Z,80.07
2023-05-19T07:31:28.293Z,80.13
2023-05-19T07:34:15.788Z,79.86
2023-05-19T07:37:03.547Z,80.20
2023-05-19T07:39:50.310Z,79.51
2023-05-19T07:42:37.159Z,79.00
2023-05-19T07:45:24.206Z,79.03
2023-05-19T07:51:36.882Z,78.86
2023-05-19T07:54:26.423Z,78.55
2023-05-19T07:57:16.770Z,78.58
2023-05-19T08:00:07.799Z,78.90
2023-05-19T08:03:05.111Z,78.85
2023-05-19T08:06:00.910Z,78.69
2023-05-19T08:08:47.428Z,78.16
2023-05-19T08:11:36.800Z,78.26
2023-05-19T08:14:27.083Z,78.54
2023-05-19T08:17:17.141Z,78.27
2023-05-19T08:20:08.810Z,77.56
2023-05-19T08:22:55.837Z,77.51
2023-05-19T08:25:48.651Z,77.88
2023-05-19T08:28:35.836Z,77.53
2023-05-19T08:31:22.748Z,76.95
2023-05-19T08:34:09.630Z,77.58
2023-05-19T08:36:59.881Z,77.14
2023-05-19T08:39:50.175Z,76.99
2023-05-19T08:42:39.383Z,76.92
2023-05-19T08:45:27.195Z,76.28
2023-05-19T08:48:14.259Z,75.58
2023-05-19T08:51:18.620Z,76.07
2023-05-19T08:54:14.021Z,76.48
2023-05-19T08:57:04.325Z,76.08
2023-05-19T08:59:52.570Z,75.91
2023-05-19T09:02:50.389Z,75.50
2023-05-19T09:05:47.252Z,76.34
2023-05-19T09:08:38.184Z,76.11
2023-05-19T09:11:24.657Z,76.10
2023-05-19T09:14:12.332Z,75.78
2023-05-19T09:16:58.829Z,75.55
2023-05-19T09:19:50.342Z,76.18
2023-05-19T09:22:47.554Z,76.27
2023-05-19T09:25:37.007Z,76.17
2023-05-19T09:28:42.239Z,76.56
2023-05-19T09:31:33.422Z,76.22
2023-05-19T09:34:24.890Z,75.86
2023-05-19T09:37:14.814Z,76.30
2023-05-19T09:40:04.660Z,76.02
2023-05-19T09:42:52.312Z,76.25
2023-05-19T09:45:38.914Z,76.65
2023-05-19T09:48:28.928Z,76.98
2023-05-19T09:51:18.827Z,76.73
2023-05-19T09:54:05.709Z,76.85
2023-05-19T09:57:12.884Z,76.65
2023-05-19T10:00:00.541Z,76.83
2023-05-19T10:02:47.999Z,77.29
2023-05-19T10:05:42.105Z,77.13
2023-05-19T10:08:30.826Z,77.54
2023-05-19T10:11:17.698Z,77.77
2023-05-19T10:14:05.478Z,77.99
2023-05-19T10:16:55.480Z,78.12
2023-05-19T10:19:46.962Z,77.37
2023-05-19T10:22:38.418Z,77.32
2023-05-19T10:25:25.830Z,77.55
2023-05-19T10:28:17.969Z,77.11
2023-05-19T10:31:10.577Z,75.95
2023-05-19T10:34:14.365Z,76.06
2023-05-19T10:37:19.313Z,75.32
2023-05-19T10:40:15.998Z,74.66
2023-05-19T10:43:14.341Z,75.00
2023-05-19T10:46:04.206Z,74.49
2023-05-19T10:48:53.565Z,73.51
2023-05-19T10:51:40.446Z,73.68
2023-05-19T10:54:46.764Z,72.30
2023-05-19T10:57:35.264Z,73.07
2023-05-19T11:00:29.023Z,74.11
2023-05-19T11:03:24.857Z,74.54
2023-05-19T11:06:32.092Z,75.18
2023-05-19T11:09:22.559Z,76.15
2023-05-19T11:12:24.694Z,78.60
2023-05-19T11:15:15.916Z,78.03
2023-05-19T11:18:03.582Z,79.34
2023-05-19T11:21:02.562Z,79.67
2023-05-19T11:23:49.197Z,80.04
2023-05-19T11:26:45.691Z,80.34
2023-05-19T11:29:34.823Z,81.05
2023-05-19T11:32:22.938Z,80.45
2023-05-19T11:35:10.448Z,80.97
2023-05-19T11:37:57.645Z,82.58
2023-05-19T11:40:44.863Z,83.19
2023-05-19T11:43:31.892Z,84.66
2023-05-19T11:46:22.368Z,84.45
2023-05-19T11:49:19.709Z,86.27
2023-05-19T11:52:06.133Z,86.58
2023-05-19T11:54:56.076Z,86.76
2023-05-19T11:57:47.056Z,87.66
2023-05-19T12:00:46.162Z,87.95
2023-05-19T12:03:33.631Z,88.85
2023-05-19T12:06:21.503Z,87.93
2023-05-19T12:09:08.018Z,89.30
2023-05-19T12:11:57.804Z,89.58
2023-05-19T12:14:44.410Z,90.25
2023-05-19T12:17:32.835Z,90.16
2023-05-19T12:20:23.498Z,89.60
2023-05-19T12:23:10.604Z,91.21
2023-05-19T12:25:59.245Z,91.70
2023-05-19T12:28:46.470Z,91.62
2023-05-19T12:31:34.368Z,93.22
2023-05-19T12:34:21.522Z,94.07
2023-05-19T12:37:11.082Z,93.72
2023-05-19T12:40:00.907Z,92.11
2023-05-19T12:42:48.834Z,91.97
2023-05-19T12:45:46.050Z,92.67
2023-05-19T12:48:35.254Z,91.47
2023-05-19T12:51:22.158Z,91.16
2023-05-19T12:54:09.091Z,92.06
2023-05-19T12:56:58.113Z,91.78
2023-05-19T12:59:47.304Z,92.77
2023-05-19T13:02:35.665Z,92.61
2023-05-19T13:05:25.523Z,93.43
2023-05-19T13:08:25.560Z,93.71
2023-05-19T13:11:12.157Z,94.50
2023-05-19T13:14:02.914Z,94.39
2023-05-19T13:16:49.390Z,95.67
2023-05-19T13:19:39.146Z,94.91
2023-05-19T13:22:25.736Z,94.08
2023-05-19T13:25:15.398Z,94.18
2023-05-19T13:28:05.818Z,93.68
2023-05-19T13:30:52.760Z,92.01
2023-05-19T13:33:38.890Z,92.53
2023-05-19T13:36:27.996Z,92.37
2023-05-19T13:39:18.493Z,91.86
2023-05-19T13:42:09.336Z,91.29
2023-05-19T13:44:56.504Z,91.15
2023-05-19T13:47:43.262Z,92.14
2023-05-19T13:50:29.891Z,91.74
2023-05-19T13:53:17.024Z,92.22
2023-05-19T13:56:03.458Z,92.34
2023-05-19T13:58:50.192Z,92.50
2023-05-19T14:01:38.552Z,91.52
2023-05-19T14:04:25.324Z,91.85
2023-05-19T14:07:11.554Z,91.72
2023-05-19T14:09:58.245Z,91.04
2023-05-19T14:13:04.953Z,91.20
2023-05-19T14:15:53.650Z,91.91
2023-05-19T14:18:40.166Z,91.31
2023-05-19T14:21:27.736Z,91.19
2023-05-19T14:24:16.865Z,91.63
2023-05-19T14:27:07.957Z,91.35
2023-05-19T14:29:54.596Z,91.68
2023-05-19T14:32:43.190Z,91.97
2023-05-19T14:35:31.165Z,92.27
2023-05-19T14:38:25.403Z,92.76
2023-05-19T14:41:15.039Z,93.48
2023-05-19T14:44:07.528Z,94.13
2023-05-19T14:46:55.142Z,93.51
2023-05-19T14:49:44.249Z,94.09
2023-05-19T14:52:30.684Z,94.22
2023-05-19T14:55:17.395Z,94.65
2023-05-19T14:58:23.577Z,94.04
2023-05-19T15:01:17.136Z,94.19
2023-05-19T15:04:03.640Z,94.62
2023-05-19T15:07:02.023Z,94.33
2023-05-19T15:09:55.938Z,94.67
2023-05-19T15:12:43.028Z,94.65
2023-05-19T15:15:32.306Z,95.47
2023-05-19T15:18:19.080Z,95.12
2023-05-19T15:21:08.376Z,95.34
2023-05-19T15:23:55.234Z,95.28
2023-05-19T15:26:41.832Z,95.17
2023-05-19T15:29:28.494Z,95.16
2023-05-19T15:32:15.000Z,95.51
2023-05-19T15:35:01.589Z,95.26
2023-05-19T15:37:50.585Z,95.49
2023-05-19T15:40:42.030Z,96.14
2023-05-19T15:43:28.515Z,95.98
2023-05-19T15:46:16.217Z,96.12
2023-05-19T15:49:05.560Z,95.72
2023-05-19T15:51:55.501Z,96.37
2023-05-19T15:54:44.456Z,95.90
2023-05-19T15:57:34.366Z,96.02
2023-05-19T16:00:21.296Z,95.83
2023-05-19T16:03:08.752Z,95.49
2023-05-19T16:05:59.538Z,95.65
2023-05-19T16:08:49.008Z,95.70
2023-05-19T16:11:38.453Z,95.86
2023-05-19T16:14:27.637Z,95.61
2023-05-19T16:17:18.180Z,95.85
2023-05-19T16:20:05.591Z,95.74
2023-05-19T16:22:54.942Z,96.24
2023-05-19T16:25:43.954Z,95.43
2023-05-19T16:28:34.390Z,95.71
2023-05-19T16:31:23.864Z,95.54
2023-05-19T16:34:13.856Z,95.64
2023-05-19T16:37:01.069Z,95.82
2023-05-19T16:39:51.117Z,95.54
2023-05-19T16:42:38.796Z,95.83
2023-05-19T16:45:29.307Z,96.00
2023-05-19T16:48:18.754Z,96.14
2023-05-19T16:51:08.034Z,95.93
2023-05-19T16:53:55.366Z,96.11
2023-05-19T16:56:41.766Z,96.44
2023-05-19T16:59:29.445Z,96.70
2023-05-19T17:02:16.083Z,96.63
2023-05-19T17:05:06.078Z,97.13
2023-05-19T17:07:55.886Z,97.09
2023-05-19T17:10:44.934Z,97.38
2023-05-19T17:13:33.848Z,97.00
2023-05-19T17:16:24.090Z,97.31
2023-05-19T17:19:14.836Z,97.37
2023-05-19T17:22:01.507Z,97.63
2023-05-19T17:24:51.961Z,97.84
2023-05-19T17:27:39.026Z,97.99
2023-05-19T17:30:28.300Z,97.54
2023-05-19T17:33:19.190Z,97.96
2023-05-19T17:36:13.878Z,97.92
2023-05-19T17:39:03.036Z,98.45
2023-05-19T17:41:54.628Z,98.03
2023-05-19T17:44:44.392Z,97.84
2023-05-19T17:47:33.940Z,98.11
2023-05-19T17:50:21.086Z,97.56
2023-05-19T17:53:07.531Z,97.88
2023-05-19T17:55:59.336Z,97.84
2023-05-19T17:58:49.417Z,97.80
2023-05-19T18:01:36.810Z,98.46
2023-05-19T18:04:28.384Z,98.59
2023-05-19T18:07:21.382Z,98.58
2023-05-19T18:10:09.411Z,98.70
2023-05-19T18:13:03.303Z,99.57
2023-05-19T18:15:52.843Z,100.00
2023-05-19T18:18:44.740Z,100.00
2023-05-19T18:21:34.276Z,100.00
2023-05-19T18:24:24.170Z,100.00
2023-05-19T18:27:17.792Z,100.00
2023-05-19T18:30:06.903Z,100.00
2023-05-19T18:32:54.169Z,100.00
2023-05-19T18:35:41.380Z,100.00
2023-05-19T18:38:29.061Z,100.00
2023-05-19T18:41:15.843Z,100.00
2023-05-19T18:44:02.421Z,100.00
2023-05-19T18:46:51.148Z,100.00
2023-05-19T18:49:42.004Z,100.00
2023-05-19T18:52:36.885Z,100.00
2023-05-19T18:55:58.289Z,100.00
2023-05-19T18:58:45.018Z,100.00
2023-05-19T19:01:38.270Z,100.00
2023-05-19T19:04:34.138Z,100.00
2023-05-19T19:07:24.996Z,100.00
2023-05-19T19:10:15.316Z,100.00
2023-05-19T19:13:06.380Z,100.00
2023-05-19T19:16:08.750Z,100.00
2023-05-19T19:19:02.363Z,100.00
2023-05-19T19:22:06.286Z,100.00
2023-05-19T19:24:58.388Z,100.00
2023-05-19T19:27:54.908Z,100.00
2023-05-19T19:31:01.792Z,100.00
2023-05-19T19:33:50.125Z,100.00
2023-05-19T19:36:41.440Z,100.00
2023-05-19T19:39:34.083Z,100.00
2023-05-19T19:42:27.984Z,100.00
2023-05-19T20:04:18.382Z,100.00
2023-05-19T20:07:35.227Z,100.00
2023-05-19T20:10:24.618Z,100.00
2023-05-19T20:13:11.651Z,100.00
2023-05-19T20:20:57.033Z,100.00
2023-05-19T20:23:52.503Z,100.00
2023-05-19T20:26:38.187Z,100.00
2023-05-19T20:29:32.873Z,100.00
2023-05-19T20:32:18.652Z,100.00
2023-05-19T20:35:04.749Z,100.00
2023-05-19T20:37:51.349Z,100.00
2023-05-19T20:40:39.790Z,100.00
2023-05-19T20:43:25.752Z,100.00
2023-05-19T20:46:11.749Z,100.00
2023-05-19T20:48:57.747Z,100.00
2023-05-19T20:51:43.321Z,100.00
2023-05-19T20:54:29.166Z,100.00
2023-05-19T20:57:14.827Z,100.00
2023-05-19T21:00:01.051Z,100.00
2023-05-19T21:02:46.577Z,100.00
2023-05-19T21:05:32.746Z,100.00
2023-05-19T21:08:18.849Z,100.00
2023-05-19T21:11:05.795Z,100.00
2023-05-19T21:13:51.691Z,100.00
2023-05-19T21:16:39.027Z,100.00
2023-05-19T21:19:24.991Z,100.00
2023-05-19T21:22:11.272Z,100.00
2023-05-19T21:24:57.472Z,100.00
2023-05-19T21:27:46.126Z,100.00
2023-05-19T21:30:32.099Z,100.00
2023-05-19T21:33:18.089Z,100.00
2023-05-19T21:36:04.219Z,100.00
2023-05-19T21:38:50.277Z,100.00
2023-05-19T21:41:35.827Z,100.00
2023-05-19T21:44:23.779Z,100.00
2023-05-19T21:47:09.322Z,100.00
2023-05-19T21:49:55.003Z,100.00
2023-05-19T21:52:40.578Z,100.00
2023-05-19T21:55:26.469Z,100.00
2023-05-19T21:58:12.818Z,100.00
2023-05-19T22:00:59.433Z,100.00
2023-05-19T22:03:45.417Z,100.00
2023-05-19T22:06:31.590Z,100.00
2023-05-19T22:09:17.645Z,100.00
2023-05-19T22:12:03.264Z,100.00
2023-05-19T22:14:49.402Z,100.00
2023-05-19T22:17:34.942Z,100.00
2023-05-19T22:20:20.608Z,100.00
2023-05-19T22:23:06.332Z,100.00
2023-05-19T22:25:51.995Z,100.00
2023-05-19T22:28:37.972Z,100.00
2023-05-19T22:31:23.376Z,100.00
2023-05-19T22:34:09.156Z,100.00
2023-05-19T22:36:55.092Z,100.00
2023-05-19T22:39:40.805Z,100.00
2023-05-19T22:42:26.960Z,100.00
2023-05-19T22:45:12.535Z,100.00
2023-05-19T22:47:58.443Z,100.00
2023-05-19T22:50:44.737Z,100.00
2023-05-19T22:53:30.142Z,100.00
2023-05-19T22:56:16.438Z,100.00
2023-05-19T22:59:01.876Z,100.00
2023-05-19T23:01:47.741Z,100.00
2023-05-19T23:04:33.998Z,100.00
2023-05-19T23:07:20.141Z,100.00
2023-05-19T23:10:07.912Z,100.00
2023-05-19T23:12:54.025Z,100.00
2023-05-19T23:15:40.009Z,100.00
2023-05-19T23:18:26.035Z,100.00
2023-05-19T23:21:12.006Z,100.00
2023-05-19T23:23:58.163Z,100.00
2023-05-19T23:26:44.134Z,100.00
2023-05-19T23:29:30.089Z,100.00
2023-05-19T23:32:16.112Z,100.00
2023-05-19T23:35:12.733Z,100.00
2023-05-19T23:37:58.705Z,100.00
2023-05-19T23:40:44.391Z,100.00
2023-05-19T23:43:30.288Z,100.00
2023-05-19T23:46:16.383Z,100.00
2023-05-19T23:49:02.243Z,100.00
2023-05-19T23:51:48.060Z,100.00
2023-05-19T23:54:33.747Z,100.00
2023-05-19T23:57:19.940Z,100.00
